createdAt,value
2018-06-20T00:01:29.435Z,16.38
2018-06-20T00:03:57.774Z,16.44
2018-06-20T00:06:26.144Z,16.46
2018-06-20T00:08:54.485Z,16.50
2018-06-20T00:11:24.480Z,16.49
2018-06-20T00:13:53.779Z,16.41
2018-06-20T00:16:22.118Z,16.34
2018-06-20T00:18:50.585Z,16.29
2018-06-20T00:21:18.919Z,16.25
2018-06-20T00:23:47.257Z,16.21
2018-06-20T00:26:15.607Z,16.18
2018-06-20T00:28:43.954Z,16.28
2018-06-20T00:31:13.193Z,16.14
2018-06-20T00:33:41.534Z,16.07
2018-06-20T00:36:09.878Z,16.11
2018-06-20T00:38:38.234Z,16.17
2018-06-20T00:41:06.642Z,16.09
2018-06-20T00:43:34.997Z,16.15
2018-06-20T00:46:03.480Z,16.16
2018-06-20T00:48:31.835Z,16.12
2018-06-20T00:51:00.179Z,16.19
2018-06-20T00:53:28.570Z,16.16
2018-06-20T00:56:08.265Z,16.08
2018-06-20T00:58:36.640Z,15.98
2018-06-20T01:01:05.008Z,15.90
2018-06-20T01:03:33.371Z,15.90
2018-06-20T01:06:01.721Z,15.78
2018-06-20T01:08:30.063Z,15.87
2018-06-20T01:10:58.456Z,15.76
2018-06-20T01:13:26.818Z,15.68
2018-06-20T01:15:55.162Z,15.65
2018-06-20T01:18:23.562Z,15.67
2018-06-20T01:20:51.906Z,15.66
2018-06-20T01:23:20.359Z,15.59
2018-06-20T01:25:50.192Z,15.57
2018-06-20T01:28:20.207Z,15.54
2018-06-20T01:30:50.550Z,15.62
2018-06-20T01:33:20.388Z,15.67
2018-06-20T01:35:49.668Z,15.65
2018-06-20T01:38:19.042Z,15.80
2018-06-20T01:40:48.291Z,15.79
2018-06-20T01:43:17.658Z,15.79
2018-06-20T01:45:46.922Z,15.80
2018-06-20T01:48:15.267Z,15.76
2018-06-20T01:50:44.452Z,15.73
2018-06-20T01:53:12.843Z,15.71
2018-06-20T01:55:42.178Z,15.71
2018-06-20T01:58:11.505Z,15.61
2018-06-20T02:00:40.888Z,15.55
2018-06-20T02:03:10.118Z,15.47
2018-06-20T02:05:38.491Z,15.44
2018-06-20T02:08:07.713Z,15.53
2018-06-20T02:10:36.931Z,15.43
2018-06-20T02:13:06.184Z,15.36
2018-06-20T02:15:34.566Z,15.35
2018-06-20T02:18:02.930Z,15.33
2018-06-20T02:20:31.302Z,15.32
2018-06-20T02:22:59.659Z,15.23
2018-06-20T02:25:28.036Z,15.17
2018-06-20T02:27:56.391Z,15.12
2018-06-20T02:30:24.731Z,15.24
2018-06-20T02:32:53.084Z,15.42
2018-06-20T02:35:21.431Z,15.49
2018-06-20T02:37:49.775Z,15.39
2018-06-20T02:40:18.127Z,15.39
2018-06-20T02:42:46.480Z,15.32
2018-06-20T02:45:15.735Z,15.26
2018-06-20T02:47:44.793Z,15.26
2018-06-20T02:50:14.063Z,15.26
2018-06-20T02:52:42.421Z,15.29
2018-06-20T02:55:10.894Z,15.33
2018-06-20T02:57:39.307Z,15.32
2018-06-20T03:00:07.669Z,15.34
2018-06-20T03:02:36.015Z,15.52
2018-06-20T03:05:04.610Z,15.48
2018-06-20T03:07:32.966Z,15.47
2018-06-20T03:10:01.317Z,15.45
2018-06-20T03:12:29.662Z,15.46
2018-06-20T03:14:58.013Z,15.44
2018-06-20T03:17:26.367Z,15.57
2018-06-20T03:19:54.714Z,15.55
2018-06-20T03:22:23.081Z,15.84
2018-06-20T03:24:51.443Z,15.81
2018-06-20T03:27:19.840Z,15.83
2018-06-20T03:29:48.197Z,15.94
2018-06-20T03:32:16.546Z,16.00
2018-06-20T03:34:44.905Z,16.10
2018-06-20T03:37:13.274Z,16.21
2018-06-20T03:39:41.627Z,16.28
2018-06-20T03:42:09.977Z,16.38
2018-06-20T03:44:39.210Z,16.54
2018-06-20T03:47:08.445Z,16.50
2018-06-20T03:49:36.797Z,16.55
2018-06-20T03:52:05.156Z,16.64
2018-06-20T03:54:33.946Z,16.76
2018-06-20T03:57:02.311Z,16.80
2018-06-20T03:59:30.667Z,16.82
2018-06-20T04:01:59.028Z,16.88
2018-06-20T04:04:27.386Z,16.89
2018-06-20T04:06:55.737Z,16.88
2018-06-20T04:09:24.095Z,16.95
2018-06-20T04:11:53.497Z,16.97
2018-06-20T04:14:22.744Z,17.00
2018-06-20T04:16:52.178Z,16.99
2018-06-20T04:19:20.527Z,17.05
2018-06-20T04:21:48.874Z,17.04
2018-06-20T04:24:17.222Z,17.11
2018-06-20T04:26:45.584Z,17.25
2018-06-20T04:29:13.967Z,17.29
2018-06-20T04:31:42.336Z,17.50
2018-06-20T04:34:10.701Z,17.87
2018-06-20T04:36:39.059Z,17.87
2018-06-20T04:39:08.976Z,17.72
2018-06-20T04:41:37.346Z,17.68
2018-06-20T04:44:05.725Z,17.80
2018-06-20T04:46:34.089Z,17.89
2018-06-20T04:49:02.489Z,17.91
2018-06-20T04:51:30.841Z,18.04
2018-06-20T04:54:01.011Z,17.91
2018-06-20T04:56:29.446Z,18.31
2018-06-20T04:58:57.813Z,18.59
2018-06-20T05:01:27.181Z,18.59
2018-06-20T05:03:56.567Z,18.51
2018-06-20T05:06:24.954Z,18.56
2018-06-20T05:08:53.326Z,18.65
2018-06-20T05:11:22.585Z,19.04
2018-06-20T05:13:51.818Z,19.25
2018-06-20T05:16:20.210Z,19.09
2018-06-20T05:18:48.566Z,19.40
2018-06-20T05:21:17.858Z,19.38
2018-06-20T05:23:46.199Z,19.68
2018-06-20T05:26:14.588Z,19.80
2018-06-20T05:28:43.937Z,19.96
2018-06-20T05:31:13.224Z,19.98
2018-06-20T05:33:42.486Z,19.83
2018-06-20T05:36:10.835Z,19.99
2018-06-20T05:38:39.215Z,19.90
2018-06-20T05:41:07.566Z,19.81
2018-06-20T05:43:36.678Z,19.75
2018-06-20T05:46:05.044Z,19.77
2018-06-20T05:48:33.475Z,19.91
2018-06-20T05:51:02.830Z,20.12
2018-06-20T05:53:31.540Z,19.94
2018-06-20T05:55:59.873Z,19.97
2018-06-20T05:58:29.271Z,20.02
2018-06-20T06:00:58.546Z,20.11
2018-06-20T06:03:26.878Z,19.96
2018-06-20T06:06:06.564Z,19.87
2018-06-20T06:08:35.910Z,19.92
2018-06-20T06:11:05.087Z,19.81
2018-06-20T06:13:34.342Z,20.00
2018-06-20T06:16:03.102Z,19.99
2018-06-20T06:18:32.446Z,20.02
2018-06-20T06:21:01.855Z,20.32
2018-06-20T06:23:31.238Z,20.20
2018-06-20T06:25:59.599Z,20.29
2018-06-20T06:28:29.185Z,20.46
2018-06-20T06:30:57.701Z,20.47
2018-06-20T06:33:26.044Z,20.95
2018-06-20T06:35:54.613Z,21.07
2018-06-20T06:38:23.978Z,21.10
2018-06-20T06:40:52.522Z,20.94
2018-06-20T06:43:20.895Z,21.07
2018-06-20T06:45:49.234Z,21.04
2018-06-20T06:48:17.567Z,21.29
2018-06-20T06:50:46.052Z,21.17
2018-06-20T06:53:14.490Z,21.39
2018-06-20T06:55:42.846Z,21.26
2018-06-20T06:58:11.198Z,21.22
2018-06-20T07:00:40.478Z,21.32
2018-06-20T07:03:08.835Z,21.38
2018-06-20T07:05:37.972Z,21.36
2018-06-20T07:08:06.305Z,21.27
2018-06-20T07:10:35.663Z,21.34
2018-06-20T07:13:04.005Z,21.60
2018-06-20T07:15:33.361Z,21.58
2018-06-20T07:18:01.726Z,21.51
2018-06-20T07:20:31.087Z,21.43
2018-06-20T07:22:59.431Z,21.55
2018-06-20T07:25:28.656Z,21.50
2018-06-20T07:27:56.985Z,21.41
2018-06-20T07:30:26.238Z,21.71
2018-06-20T07:32:54.573Z,22.10
2018-06-20T07:35:23.001Z,22.05
2018-06-20T07:37:52.278Z,22.22
2018-06-20T07:40:20.614Z,22.13
2018-06-20T07:42:49.958Z,22.21
2018-06-20T07:45:18.324Z,22.41
2018-06-20T07:47:47.503Z,22.59
2018-06-20T07:50:15.900Z,22.65
2018-06-20T07:52:44.250Z,22.54
2018-06-20T07:55:12.664Z,22.91
2018-06-20T07:57:41.731Z,23.04
2018-06-20T08:00:15.289Z,22.93
2018-06-20T08:03:00.226Z,23.11
2018-06-20T08:05:33.943Z,23.14
2018-06-20T08:08:08.482Z,22.96
2018-06-20T08:10:43.074Z,23.21
2018-06-20T08:13:17.593Z,23.12
2018-06-20T08:15:52.217Z,23.38
2018-06-20T08:18:25.784Z,23.47
2018-06-20T08:20:55.105Z,23.73
2018-06-20T08:23:23.453Z,23.82
2018-06-20T08:25:51.855Z,23.81
2018-06-20T08:28:20.183Z,23.72
2018-06-20T08:30:48.531Z,23.62
2018-06-20T08:33:16.886Z,23.61
2018-06-20T08:35:45.236Z,24.01
2018-06-20T08:38:13.590Z,23.91
2018-06-20T08:40:41.941Z,24.35
2018-06-20T08:43:10.316Z,24.17
2018-06-20T08:45:38.726Z,24.05
2018-06-20T08:48:07.130Z,24.25
2018-06-20T08:50:35.522Z,24.65
2018-06-20T08:53:03.912Z,24.30
2018-06-20T08:55:33.129Z,24.15
2018-06-20T08:58:02.417Z,24.64
2018-06-20T09:00:36.006Z,25.05
2018-06-20T09:03:04.382Z,25.31
2018-06-20T09:05:38.158Z,24.69
2018-06-20T09:08:12.858Z,25.10
2018-06-20T09:12:54.414Z,25.38
2018-06-20T09:15:28.062Z,25.50
2018-06-20T09:18:02.620Z,25.00
2018-06-20T09:20:31.022Z,25.36
2018-06-20T09:22:59.359Z,26.01
2018-06-20T09:25:27.694Z,25.99
2018-06-20T09:27:56.931Z,26.18
2018-06-20T09:30:26.273Z,25.17
2018-06-20T09:32:54.702Z,25.98
2018-06-20T09:35:23.039Z,26.37
2018-06-20T09:37:51.429Z,26.47
2018-06-20T09:40:19.768Z,26.63
2018-06-20T09:42:48.147Z,26.35
2018-06-20T09:45:17.386Z,26.59
2018-06-20T09:47:45.731Z,26.61
2018-06-20T09:50:20.315Z,26.63
2018-06-20T09:52:48.697Z,26.13
2018-06-20T09:55:17.955Z,25.77
2018-06-20T09:57:47.265Z,25.49
2018-06-20T10:00:21.786Z,25.32
2018-06-20T10:02:55.470Z,25.72
2018-06-20T10:05:30.122Z,26.28
2018-06-20T10:08:04.808Z,26.30
2018-06-20T10:10:39.481Z,26.36
2018-06-20T10:13:13.764Z,26.44
2018-06-20T10:15:42.960Z,26.24
2018-06-20T10:18:11.353Z,26.64
2018-06-20T10:20:40.604Z,27.10
2018-06-20T10:23:09.899Z,27.34
2018-06-20T10:25:39.130Z,27.00
2018-06-20T10:28:08.341Z,26.78
2018-06-20T10:30:37.690Z,26.80
2018-06-20T10:33:06.050Z,26.73
2018-06-20T10:35:34.434Z,27.11
2018-06-20T10:38:03.719Z,27.60
2018-06-20T10:40:32.102Z,27.88
2018-06-20T10:43:01.526Z,27.92
2018-06-20T10:45:35.183Z,28.30
2018-06-20T10:48:09.881Z,27.86
2018-06-20T10:50:38.962Z,28.11
2018-06-20T10:53:08.340Z,27.73
2018-06-20T10:55:38.838Z,27.31
2018-06-20T10:58:13.714Z,27.30
2018-06-20T11:00:47.732Z,27.66
2018-06-20T11:03:21.423Z,27.60
2018-06-20T11:05:55.122Z,27.77
2018-06-20T11:08:29.806Z,27.39
2018-06-20T11:11:04.420Z,27.98
2018-06-20T11:13:33.675Z,28.39
2018-06-20T11:16:02.946Z,28.75
2018-06-20T11:18:33.602Z,28.18
2018-06-20T11:21:02.005Z,27.40
2018-06-20T11:23:30.375Z,27.56
2018-06-20T11:25:58.738Z,27.32
2018-06-20T11:28:27.090Z,27.05
2018-06-20T11:30:55.462Z,27.46
2018-06-20T11:33:23.822Z,27.86
2018-06-20T11:35:52.204Z,27.94
2018-06-20T11:38:21.487Z,27.99
2018-06-20T11:40:50.299Z,28.50
2018-06-20T11:43:18.868Z,28.65
2018-06-20T11:45:52.530Z,28.41
2018-06-20T11:48:20.878Z,28.65
2018-06-20T11:50:49.249Z,28.38
2018-06-20T11:53:17.582Z,28.57
2018-06-20T11:55:47.026Z,28.42
2018-06-20T11:58:20.613Z,28.15
2018-06-20T12:00:54.254Z,27.28
2018-06-20T12:03:27.965Z,27.68
2018-06-20T12:06:01.641Z,27.45
2018-06-20T12:08:35.357Z,27.74
2018-06-20T12:11:08.954Z,28.01
2018-06-20T12:13:42.590Z,28.19
2018-06-20T12:16:24.047Z,28.07
2018-06-20T12:18:57.733Z,28.57
2018-06-20T12:21:31.546Z,29.17
2018-06-20T12:24:05.216Z,29.82
2018-06-20T12:26:38.817Z,29.55
2018-06-20T12:29:12.554Z,30.02
2018-06-20T12:31:46.151Z,30.34
2018-06-20T12:34:19.914Z,30.27
2018-06-20T12:36:53.630Z,30.04
2018-06-20T12:39:21.164Z,29.41
2018-06-20T12:41:54.977Z,29.34
2018-06-20T12:44:30.414Z,28.93
2018-06-20T12:47:01.356Z,28.44
2018-06-20T12:49:34.448Z,28.61
2018-06-20T12:52:03.709Z,29.01
2018-06-20T12:54:32.384Z,28.89
2018-06-20T12:57:01.735Z,28.73
2018-06-20T12:59:31.131Z,28.89
2018-06-20T13:01:59.491Z,28.89
2018-06-20T13:04:27.849Z,29.37
2018-06-20T13:06:56.198Z,29.14
2018-06-20T13:09:24.564Z,28.96
2018-06-20T13:11:53.906Z,29.14
2018-06-20T13:14:23.161Z,29.05
2018-06-20T13:16:51.513Z,29.23
2018-06-20T13:19:19.869Z,29.22
2018-06-20T13:21:48.232Z,29.48
2018-06-20T13:24:16.582Z,29.94
2018-06-20T13:26:45.842Z,29.83
2018-06-20T13:29:15.086Z,29.79
2018-06-20T13:31:49.778Z,29.29
2018-06-20T13:34:24.447Z,29.74
2018-06-20T13:36:59.090Z,29.66
2018-06-20T13:39:33.917Z,30.07
2018-06-20T13:42:08.778Z,29.64
2018-06-20T13:44:38.038Z,29.27
2018-06-20T13:47:12.707Z,29.54
2018-06-20T13:49:41.996Z,29.78
2018-06-20T13:52:11.212Z,29.95
2018-06-20T13:54:39.574Z,30.29
2018-06-20T13:57:08.948Z,30.47
2018-06-20T13:59:38.201Z,29.91
2018-06-20T14:02:07.504Z,29.81
2018-06-20T14:04:36.873Z,29.96
2018-06-20T14:07:06.159Z,29.65
2018-06-20T14:09:34.547Z,29.26
2018-06-20T14:12:04.712Z,29.88
2018-06-20T14:14:33.092Z,31.04
2018-06-20T14:17:02.365Z,31.13
2018-06-20T14:19:36.913Z,32.13
2018-06-20T14:22:06.335Z,31.34
2018-06-20T14:24:34.683Z,31.98
2018-06-20T14:27:04.065Z,32.28
2018-06-20T14:29:38.576Z,31.91
2018-06-20T14:32:13.287Z,31.35
2018-06-20T14:34:46.987Z,30.64
2018-06-20T14:37:20.665Z,30.32
2018-06-20T14:39:54.362Z,30.41
2018-06-20T14:42:29.014Z,29.99
2018-06-20T14:45:02.811Z,30.21
2018-06-20T14:47:31.227Z,30.24
2018-06-20T14:50:00.245Z,30.22
2018-06-20T14:52:28.645Z,31.14
2018-06-20T14:54:57.080Z,32.24
2018-06-20T14:57:26.451Z,32.95
2018-06-20T14:59:54.857Z,33.66
2018-06-20T15:02:23.219Z,32.91
2018-06-20T15:04:51.617Z,32.19
2018-06-20T15:07:21.014Z,32.74
2018-06-20T15:09:49.387Z,32.37
2018-06-20T15:12:18.832Z,31.84
2018-06-20T15:14:47.194Z,31.24
2018-06-20T15:17:20.940Z,30.68
2018-06-20T15:19:49.344Z,30.24
2018-06-20T15:22:18.674Z,29.33
2018-06-20T15:24:47.954Z,29.72
2018-06-20T15:27:21.442Z,31.03
2018-06-20T15:29:55.074Z,31.68
2018-06-20T15:32:28.772Z,32.10
2018-06-20T15:35:02.465Z,33.26
2018-06-20T15:37:36.156Z,33.13
2018-06-20T15:40:05.028Z,33.36
2018-06-20T15:42:33.421Z,32.75
2018-06-20T15:45:01.781Z,33.03
2018-06-20T15:47:30.233Z,32.55
2018-06-20T15:49:58.590Z,31.22
2018-06-20T15:52:27.885Z,31.01
2018-06-20T15:54:56.266Z,30.72
2018-06-20T15:57:24.652Z,30.43
2018-06-20T15:59:53.079Z,29.67
2018-06-20T16:02:21.546Z,29.71
2018-06-20T16:04:49.921Z,29.41
2018-06-20T16:07:18.287Z,29.40
2018-06-20T16:09:57.352Z,29.39
2018-06-20T16:12:26.254Z,29.51
2018-06-20T16:14:56.434Z,29.44
2018-06-20T16:17:26.034Z,29.42
2018-06-20T16:20:00.653Z,29.24
2018-06-20T16:22:34.396Z,29.25
2018-06-20T16:25:08.098Z,29.03
2018-06-20T16:29:47.459Z,28.91
2018-06-20T16:32:15.859Z,28.93
2018-06-20T16:34:45.115Z,28.84
2018-06-20T16:37:13.484Z,28.84
2018-06-20T16:39:42.845Z,28.67
2018-06-20T16:42:12.121Z,28.56
2018-06-20T16:44:40.533Z,28.44
2018-06-20T16:47:10.214Z,28.42
2018-06-20T16:49:39.527Z,28.29
2018-06-20T16:52:08.768Z,28.14
2018-06-20T16:54:38.074Z,28.24
2018-06-20T16:57:06.847Z,28.04
2018-06-20T16:59:36.184Z,27.96
2018-06-20T17:02:10.727Z,28.00
2018-06-20T17:04:40.135Z,27.64
2018-06-20T17:07:08.585Z,27.70
2018-06-20T17:09:37.863Z,27.59
2018-06-20T17:12:12.519Z,27.63
2018-06-20T17:14:46.159Z,27.72
2018-06-20T17:17:19.858Z,27.72
2018-06-20T17:19:54.566Z,27.76
2018-06-20T17:22:28.240Z,27.71
2018-06-20T17:25:01.962Z,27.83
2018-06-20T17:27:30.407Z,27.75
2018-06-20T17:29:58.757Z,27.98
2018-06-20T17:32:27.175Z,28.01
2018-06-20T17:34:55.823Z,28.01
2018-06-20T17:37:24.173Z,27.99
2018-06-20T17:39:52.535Z,27.92
2018-06-20T17:42:20.954Z,27.72
2018-06-20T17:44:49.310Z,27.47
2018-06-20T17:47:17.679Z,27.33
2018-06-20T17:49:46.102Z,27.23
2018-06-20T17:52:14.462Z,27.26
2018-06-20T17:54:42.835Z,27.18
2018-06-20T17:57:12.260Z,27.23
2018-06-20T17:59:41.558Z,27.15
2018-06-20T18:02:10.964Z,27.08
2018-06-20T18:04:44.717Z,26.96
2018-06-20T18:07:18.371Z,26.92
2018-06-20T18:09:52.182Z,26.88
2018-06-20T18:12:27.454Z,26.79
2018-06-20T18:15:01.170Z,26.68
2018-06-20T18:17:29.569Z,26.62
2018-06-20T18:19:57.963Z,26.55
2018-06-20T18:22:26.359Z,26.46
2018-06-20T18:24:54.844Z,26.43
2018-06-20T18:27:23.262Z,26.36
2018-06-20T18:29:51.668Z,26.14
2018-06-20T18:32:20.041Z,25.97
2018-06-20T18:34:48.423Z,25.78
2018-06-20T18:37:16.780Z,25.70
2018-06-20T18:39:51.586Z,25.54
2018-06-20T18:42:20.781Z,25.38
2018-06-20T18:44:50.168Z,25.18
2018-06-20T18:47:23.767Z,25.03
2018-06-20T18:49:52.627Z,24.85
2018-06-20T18:52:21.926Z,24.69
2018-06-20T18:54:51.176Z,24.58
2018-06-20T18:57:25.473Z,24.44
2018-06-20T18:59:59.167Z,24.31
2018-06-20T19:02:42.356Z,24.18
2018-06-20T19:05:16.080Z,24.08
2018-06-20T19:07:50.855Z,23.99
2018-06-20T19:10:19.223Z,23.90
2018-06-20T19:12:48.608Z,23.79
2018-06-20T19:15:17.007Z,23.72
2018-06-20T19:17:46.327Z,23.64
2018-06-20T19:20:14.724Z,23.55
2018-06-20T19:22:43.883Z,23.46
2018-06-20T19:25:12.239Z,23.39
2018-06-20T19:27:41.645Z,23.36
2018-06-20T19:30:10.916Z,23.30
2018-06-20T19:32:40.311Z,23.22
2018-06-20T19:35:09.560Z,23.10
2018-06-20T19:37:37.930Z,22.98
2018-06-20T19:40:07.310Z,22.90
2018-06-20T19:42:35.668Z,22.82
2018-06-20T19:45:04.125Z,22.72
2018-06-20T19:47:32.510Z,22.63
2018-06-20T19:50:01.771Z,22.54
2018-06-20T19:52:30.167Z,22.49
2018-06-20T19:54:58.526Z,22.41
2018-06-20T19:57:27.907Z,22.22
2018-06-20T19:59:56.318Z,22.21
2018-06-20T20:02:25.682Z,22.23
2018-06-20T20:04:55.110Z,22.07
2018-06-20T20:07:23.450Z,21.97
2018-06-20T20:09:51.901Z,22.01
2018-06-20T20:12:21.332Z,21.85
2018-06-20T20:14:49.749Z,21.71
2018-06-20T20:17:19.175Z,21.58
2018-06-20T20:19:47.541Z,21.49
2018-06-20T20:22:15.897Z,21.42
2018-06-20T20:24:44.252Z,21.40
2018-06-20T20:27:12.634Z,21.33
2018-06-20T20:29:40.986Z,21.26
2018-06-20T20:32:09.380Z,21.18
2018-06-20T20:34:37.761Z,21.14
2018-06-20T20:37:06.124Z,21.07
2018-06-20T20:39:34.500Z,21.02
2018-06-20T20:42:02.952Z,20.95
2018-06-20T20:44:33.621Z,20.89
2018-06-20T20:47:02.948Z,20.84
2018-06-20T20:49:32.407Z,20.78
2018-06-20T20:52:00.785Z,20.70
2018-06-20T20:54:29.143Z,20.62
2018-06-20T20:56:57.542Z,20.54
2018-06-20T20:59:25.907Z,20.45
2018-06-20T21:01:54.708Z,20.35
2018-06-20T21:04:23.054Z,20.28
2018-06-20T21:06:51.563Z,20.22
2018-06-20T21:09:20.090Z,20.20
2018-06-20T21:11:49.129Z,20.17
2018-06-20T21:14:17.514Z,20.16
2018-06-20T21:16:45.947Z,20.10
2018-06-20T21:19:14.338Z,20.13
2018-06-20T21:21:42.682Z,20.10
2018-06-20T21:24:11.034Z,20.05
2018-06-20T21:26:40.195Z,19.97
2018-06-20T21:29:08.603Z,19.92
2018-06-20T21:31:37.051Z,19.87
2018-06-20T21:34:05.411Z,19.81
2018-06-20T21:36:33.879Z,19.74
2018-06-20T21:39:02.265Z,19.70
2018-06-20T21:41:31.624Z,19.63
2018-06-20T21:44:00.894Z,19.59
2018-06-20T21:46:30.270Z,19.55
2018-06-20T21:48:58.630Z,19.52
2018-06-20T21:51:27.023Z,19.49
2018-06-20T21:53:55.369Z,19.43
2018-06-20T21:56:23.727Z,19.39
2018-06-20T21:58:52.098Z,19.35
2018-06-20T22:01:20.459Z,19.29
2018-06-20T22:03:48.871Z,19.25
2018-06-20T22:06:17.237Z,19.23
2018-06-20T22:08:45.596Z,19.20
2018-06-20T22:11:14.053Z,19.23
2018-06-20T22:13:42.422Z,19.24
2018-06-20T22:16:11.686Z,19.24
2018-06-20T22:18:40.104Z,19.14
2018-06-20T22:21:09.368Z,19.11
2018-06-20T22:23:38.789Z,19.14
2018-06-20T22:26:08.154Z,19.03
2018-06-20T22:28:36.516Z,19.01
2018-06-20T22:31:04.877Z,18.97
2018-06-20T22:33:33.258Z,18.97
2018-06-20T22:36:01.604Z,18.97
2018-06-20T22:38:29.993Z,18.98
2018-06-20T22:40:59.142Z,19.00
2018-06-20T22:43:27.491Z,19.00
2018-06-20T22:45:55.844Z,18.97
2018-06-20T22:48:24.212Z,19.03
2018-06-20T22:50:52.611Z,19.02
2018-06-20T22:53:20.984Z,19.05
2018-06-20T22:55:49.331Z,19.03
2018-06-20T22:58:17.692Z,19.04
2018-06-20T23:00:46.047Z,19.01
2018-06-20T23:03:14.415Z,18.98
2018-06-20T23:05:42.769Z,18.95
2018-06-20T23:08:11.167Z,18.91
2018-06-20T23:10:39.533Z,18.87
2018-06-20T23:13:08.006Z,18.86
2018-06-20T23:15:36.349Z,18.82
2018-06-20T23:18:04.997Z,18.78
2018-06-20T23:20:34.443Z,18.74
2018-06-20T23:23:03.135Z,18.70
2018-06-20T23:25:31.541Z,18.69
2018-06-20T23:28:00.799Z,18.65
2018-06-20T23:30:29.156Z,18.58
2018-06-20T23:32:57.522Z,18.53
2018-06-20T23:35:25.889Z,18.52
2018-06-20T23:37:55.260Z,18.48
2018-06-20T23:40:24.421Z,18.45
2018-06-20T23:42:52.823Z,18.40
2018-06-20T23:45:22.065Z,18.34
2018-06-20T23:47:50.433Z,18.29
2018-06-20T23:50:18.787Z,18.28
2018-06-20T23:52:47.125Z,18.28
2018-06-20T23:55:15.476Z,18.25
2018-06-20T23:57:43.846Z,18.20
